Time;durP1;ratioP1;P1;durP2;ratioP2;P2;SDS_P1;SDS_P2;PMS_P1;PMS_P2;Temp;Humidity;BMP_temperature;BMP_pressure;BME280_temperature;BME280_humidity;BME280_pressure;Samples;Min_cycle;Max_cycle;Signal;HPM_P1;HPM_P2
2022/07/26 00:01:33;;;;;;;9.10;2.65;;;;;;;48.28;14.79;100613.72;5060952;28;20048;-64
2022/07/26 00:04:00;;;;;;;13.05;2.75;;;;;;;48.29;14.84;100612.41;5057309;28;20083;-65
2022/07/26 00:06:28;;;;;;;7.82;2.40;;;;;;;47.31;15.97;100614.41;5058962;28;21398;-64
2022/07/26 00:08:56;;;;;;;8.95;2.40;;;;;;;47.24;15.40;100603.44;5058752;28;20032;-66
2022/07/26 00:11:25;;;;;;;11.13;2.38;;;;;;;47.91;15.62;100614.88;5061792;28;20021;-65
2022/07/26 00:13:53;;;;;;;9.23;2.78;;;;;;;45.91;16.78;100613.16;5061407;28;20033;-65
2022/07/26 00:16:20;;;;;;;10.68;2.38;;;;;;;47.65;15.75;100589.28;5059125;28;20035;-64
2022/07/26 00:18:47;;;;;;;10.75;2.67;;;;;;;47.42;15.50;100611.53;5056867;28;20033;-64
2022/07/26 00:21:14;;;;;;;12.07;2.63;;;;;;;46.52;16.94;100604.09;5059886;28;20141;-64
2022/07/26 00:23:42;;;;;;;12.55;2.72;;;;;;;46.55;16.93;100612.47;5061298;28;20029;-64
2022/07/26 00:26:09;;;;;;;15.90;2.63;;;;;;;46.63;16.60;100609.84;5064590;28;20054;-64
2022/07/26 00:28:36;;;;;;;15.65;2.90;;;;;;;46.21;17.62;100605.78;5058697;28;20059;-64
2022/07/26 00:31:03;;;;;;;15.25;2.88;;;;;;;45.62;18.15;100603.59;5065181;28;20032;-65
2022/07/26 00:33:31;;;;;;;8.35;2.30;;;;;;;44.88;18.82;100607.09;5063075;28;20036;-64
2022/07/26 00:35:57;;;;;;;10.60;2.75;;;;;;;45.57;18.06;100597.78;5064002;28;20578;-64
2022/07/26 00:38:25;;;;;;;15.40;3.03;;;;;;;44.25;18.93;100600.38;5064033;28;20501;-64
2022/07/26 00:40:52;;;;;;;25.17;3.10;;;;;;;44.97;17.56;100593.91;5066323;28;20029;-64
2022/07/26 00:43:19;;;;;;;34.92;5.68;;;;;;;45.28;20.59;100593.16;5067817;28;20098;-64
2022/07/26 00:45:46;;;;;;;27.77;3.33;;;;;;;46.08;18.31;100585.34;5060809;28;20024;-64
2022/07/26 00:48:14;;;;;;;25.70;3.30;;;;;;;45.62;19.25;100594.97;5062830;28;20116;-65
2022/07/26 00:50:43;;;;;;;17.65;3.00;;;;;;;45.66;18.05;100589.78;5060718;28;20036;-64
2022/07/26 00:53:10;;;;;;;29.33;3.33;;;;;;;44.85;18.53;100584.34;5068742;28;20056;-66
2022/07/26 00:55:37;;;;;;;14.13;2.60;;;;;;;44.93;18.45;100588.41;5066120;28;20124;-63
2022/07/26 00:58:05;;;;;;;7.93;2.42;;;;;;;43.87;18.90;100587.09;5057017;28;20079;-62
2022/07/26 01:00:33;;;;;;;15.70;2.70;;;;;;;44.24;19.79;100588.13;5055787;28;20021;-64
2022/07/26 01:03:01;;;;;;;19.92;3.08;;;;;;;44.24;19.97;100590.19;5057826;28;20086;-64
2022/07/26 01:05:28;;;;;;;8.80;2.55;;;;;;;42.76;20.77;100584.69;5059530;28;20033;-63
2022/07/26 01:07:59;;;;;;;17.40;2.50;;;;;;;42.68;21.64;100592.06;5051341;28;20045;-63
2022/07/26 01:10:28;;;;;;;14.45;2.70;;;;;;;43.12;21.55;100585.63;5056334;28;20040;-63
2022/07/26 01:12:57;;;;;;;10.93;2.47;;;;;;;43.06;21.92;100587.56;5056262;28;20392;-63
2022/07/26 01:15:24;;;;;;;9.52;2.50;;;;;;;42.60;22.01;100590.88;5056339;28;20070;-64
2022/07/26 01:17:51;;;;;;;14.20;2.50;;;;;;;42.30;22.09;100600.63;5060326;28;20082;-63
2022/07/26 01:20:18;;;;;;;14.90;2.90;;;;;;;42.42;22.14;100596.72;5055537;28;20041;-63
2022/07/26 01:22:45;;;;;;;7.50;2.60;;;;;;;41.48;21.99;100605.50;5059609;28;20093;-63
2022/07/26 01:25:12;;;;;;;9.63;2.60;;;;;;;40.54;23.64;100604.53;5059828;28;20049;-62
2022/07/26 01:27:40;;;;;;;15.20;2.58;;;;;;;40.16;23.64;100613.50;5080012;28;20487;-62
2022/07/26 01:30:11;;;;;;;11.57;2.50;;;;;;;40.26;23.64;100600.84;5063175;28;20063;-63
2022/07/26 01:32:39;;;;;;;9.32;2.50;;;;;;;41.08;22.15;100602.09;5061016;28;20037;-63
2022/07/26 01:35:07;;;;;;;10.52;2.33;;;;;;;40.64;23.14;100611.03;5081439;28;20386;-62
2022/07/26 01:37:35;;;;;;;11.88;2.60;;;;;;;40.53;22.21;100622.88;5082996;28;20085;-64
2022/07/26 01:40:04;;;;;;;10.88;2.65;;;;;;;40.28;22.50;100620.31;5075674;28;20237;-62
2022/07/26 01:42:31;;;;;;;8.45;2.45;;;;;;;39.79;22.89;100621.13;5080343;28;20059;-63
2022/07/26 01:45:00;;;;;;;14.30;2.40;;;;;;;39.28;23.82;100627.19;5083573;28;20028;-63
2022/07/26 01:47:28;;;;;;;12.63;2.40;;;;;;;39.45;22.81;100624.91;5077582;28;20465;-63
2022/07/26 01:49:55;;;;;;;13.02;2.30;;;;;;;39.91;21.81;100628.75;5078682;28;20040;-63
2022/07/26 01:52:26;;;;;;;8.07;2.10;;;;;;;39.47;22.33;100637.41;5081597;28;20063;-62
2022/07/26 01:54:53;;;;;;;11.88;2.53;;;;;;;39.20;23.16;100638.06;5076095;28;20036;-62
2022/07/26 01:57:20;;;;;;;13.35;2.42;;;;;;;38.91;23.00;100637.50;5081647;28;20037;-63
2022/07/26 01:59:47;;;;;;;5.68;2.03;;;;;;;38.54;22.90;100642.84;5081107;28;20507;-64
2022/07/26 02:02:14;;;;;;;14.02;2.25;;;;;;;38.34;23.16;100646.00;5081183;28;20177;-63
2022/07/26 02:04:58;;;;;;;14.75;2.60;;;;;;;38.26;22.89;100652.38;5079959;28;20048;-63
2022/07/26 02:07:39;;;;;;;11.07;2.30;;;;;;;38.01;21.80;100645.44;5082369;28;20044;-63
2022/07/26 02:10:09;;;;;;;10.15;2.40;;;;;;;37.86;22.34;100652.03;5078922;28;20071;-64
2022/07/26 02:12:38;;;;;;;15.05;2.60;;;;;;;37.62;22.48;100660.06;5074266;28;20028;-65
2022/07/26 02:15:07;;;;;;;14.13;2.55;;;;;;;37.44;22.11;100666.28;5075343;28;20020;-63
2022/07/26 02:17:34;;;;;;;15.10;2.38;;;;;;;37.44;21.99;100669.13;5072042;28;20433;-65
2022/07/26 02:20:05;;;;;;;21.23;2.88;;;;;;;37.27;22.26;100662.75;5075828;28;20032;-62
2022/07/26 02:22:33;;;;;;;16.55;2.53;;;;;;;37.27;22.73;100659.91;5081085;28;20125;-62
2022/07/26 02:25:03;;;;;;;63.10;5.60;;;;;;;37.23;24.74;100667.69;5086870;28;20029;-63
2022/07/26 02:27:31;;;;;;;12.98;2.47;;;;;;;36.98;23.46;100667.59;5081041;28;20032;-63
2022/07/26 02:29:58;;;;;;;14.18;2.10;;;;;;;36.84;24.79;100672.44;5084815;28;20020;-63
2022/07/26 02:32:25;;;;;;;10.30;2.10;;;;;;;36.75;23.81;100671.47;5083105;28;20020;-63
2022/07/26 02:34:54;;;;;;;12.45;2.60;;;;;;;36.57;24.71;100683.25;5086833;28;20028;-63
2022/07/26 02:37:21;;;;;;;15.65;2.58;;;;;;;36.50;24.25;100677.78;5088599;28;20103;-63
2022/07/26 02:39:49;;;;;;;10.43;2.58;;;;;;;36.45;23.99;100678.34;5084546;28;20444;-63
2022/07/26 02:42:17;;;;;;;15.55;2.70;;;;;;;36.31;22.67;100683.13;5089226;28;20020;-63
2022/07/26 02:44:45;;;;;;;12.98;2.50;;;;;;;36.10;23.32;100680.78;5085424;28;20024;-63
2022/07/26 02:47:14;;;;;;;15.35;2.25;;;;;;;36.16;22.99;100681.84;5082832;28;20470;-63
2022/07/26 02:49:42;;;;;;;11.85;2.22;;;;;;;36.10;22.48;100680.00;5085089;28;20092;-62
2022/07/26 02:52:11;;;;;;;16.52;2.22;;;;;;;35.98;23.57;100685.09;5085218;28;20441;-63
2022/07/26 02:54:44;;;;;;;14.48;2.35;;;;;;;36.08;21.07;100688.09;5066361;28;20036;-64
2022/07/26 02:57:13;;;;;;;10.68;2.20;;;;;;;35.90;21.15;100685.69;5064240;28;20052;-62
2022/07/26 02:59:40;;;;;;;10.80;2.47;;;;;;;35.81;21.34;100702.47;5064684;28;20037;-61
2022/07/26 03:02:09;;;;;;;14.85;2.53;;;;;;;35.61;21.66;100677.84;5064887;28;20024;-62
2022/07/26 03:04:36;;;;;;;14.40;3.00;;;;;;;35.59;22.07;100685.97;5059898;28;20410;-63
2022/07/26 03:07:06;;;;;;;15.48;2.47;;;;;;;35.53;22.25;100684.88;5063477;28;20041;-63
2022/07/26 03:09:34;;;;;;;12.73;2.40;;;;;;;35.59;22.12;100696.50;5068630;28;20450;-63
2022/07/26 03:12:02;;;;;;;16.40;2.50;;;;;;;35.36;21.75;100683.25;5060558;28;20517;-63
2022/07/26 03:14:35;;;;;;;12.60;2.67;;;;;;;35.22;22.92;100697.66;5065044;28;20049;-64
2022/07/26 03:17:04;;;;;;;13.23;2.75;;;;;;;35.13;23.16;100693.38;5065683;28;20293;-64
2022/07/26 03:19:31;;;;;;;12.50;2.40;;;;;;;35.10;22.87;100691.41;5070872;28;20682;-64
2022/07/26 03:21:58;;;;;;;13.63;2.30;;;;;;;35.09;23.95;100701.13;5061635;28;20037;-64
2022/07/26 03:24:25;;;;;;;19.02;2.70;;;;;;;35.08;23.62;100698.72;5063609;28;20124;-64
2022/07/26 03:26:52;;;;;;;22.35;3.15;;;;;;;35.12;23.75;100700.25;5063091;28;20116;-64
2022/07/26 03:29:19;;;;;;;13.50;2.55;;;;;;;35.10;24.19;100714.00;5064804;28;20028;-64
2022/07/26 03:31:47;;;;;;;23.10;3.67;;;;;;;34.92;23.79;100705.09;5064652;28;20037;-63
2022/07/26 03:34:14;;;;;;;17.35;3.10;;;;;;;34.95;24.52;100712.69;5068788;28;20021;-64
2022/07/26 03:36:42;;;;;;;19.48;3.00;;;;;;;34.78;25.26;100722.25;5059723;28;20543;-64
2022/07/26 03:39:09;;;;;;;15.55;3.90;;;;;;;34.67;25.38;100719.63;5062468;28;20024;-64
2022/07/26 03:41:37;;;;;;;21.83;3.33;;;;;;;34.67;24.98;100716.03;5065025;28;20097;-64
2022/07/26 03:44:06;;;;;;;21.58;2.90;;;;;;;34.70;25.21;100715.94;5062527;28;20418;-63
2022/07/26 03:46:33;;;;;;;15.93;3.10;;;;;;;34.66;25.03;100709.56;5077317;28;20055;-64
2022/07/26 03:49:03;;;;;;;15.25;2.97;;;;;;;34.71;25.03;100722.41;5077419;28;20035;-63
2022/07/26 03:51:37;;;;;;;21.60;2.90;;;;;;;34.75;25.36;100711.81;5081430;28;20046;-63
2022/07/26 03:54:04;;;;;;;18.63;2.70;;;;;;;34.72;25.97;100724.00;5080625;28;20035;-61
2022/07/26 03:56:34;;;;;;;25.25;3.22;;;;;;;34.80;26.01;100725.44;5073574;28;20040;-63
2022/07/26 03:59:05;;;;;;;21.75;3.03;;;;;;;34.60;26.92;100728.22;5086327;28;20036;-61
2022/07/26 04:01:34;;;;;;;20.08;3.25;;;;;;;34.58;27.01;100738.34;5070886;28;20537;-64
2022/07/26 04:04:01;;;;;;;18.25;3.15;;;;;;;34.45;27.64;100735.31;5071167;28;20048;-62
2022/07/26 04:06:28;;;;;;;22.95;3.35;;;;;;;34.49;28.07;100738.91;5074442;28;20040;-64
2022/07/26 04:08:55;;;;;;;26.17;3.63;;;;;;;34.46;28.83;100746.19;5075626;28;20487;-61
2022/07/26 04:11:24;;;;;;;17.23;3.45;;;;;;;34.40;29.05;100747.91;5083434;28;20028;-63
2022/07/26 04:13:53;;;;;;;24.10;4.38;;;;;;;34.39;30.05;100756.81;5082856;28;20027;-63
2022/07/26 04:16:24;;;;;;;26.13;4.00;;;;;;;34.31;29.85;100760.94;5089825;28;20035;-61
2022/07/26 04:18:53;;;;;;;23.92;4.30;;;;;;;34.23;30.63;100768.69;5084228;28;20162;-63
2022/07/26 04:21:21;;;;;;;10.75;3.13;;;;;;;34.25;30.95;100769.06;5076136;28;20441;-63
2022/07/26 04:23:48;;;;;;;10.23;3.28;;;;;;;34.22;30.90;100765.09;5076774;28;20056;-63
2022/07/26 04:26:17;;;;;;;10.15;2.88;;;;;;;34.10;30.86;100778.97;5077979;28;20028;-63
2022/07/26 04:28:44;;;;;;;9.02;3.00;;;;;;;34.03;30.79;100774.22;5085347;28;20024;-64
2022/07/26 04:31:12;;;;;;;12.68;3.20;;;;;;;34.03;30.53;100767.78;5087710;28;20028;-64
2022/07/26 04:33:39;;;;;;;11.10;3.17;;;;;;;34.00;30.43;100777.09;5076829;28;20028;-63
2022/07/26 04:36:06;;;;;;;10.02;3.28;;;;;;;34.02;30.18;100783.13;5083315;28;20036;-63
2022/07/26 04:38:37;;;;;;;11.82;3.38;;;;;;;33.92;30.14;100774.38;5079200;28;20446;-63
2022/07/26 04:41:04;;;;;;;10.02;3.50;;;;;;;33.94;29.83;100776.78;5070917;28;20433;-63
2022/07/26 04:43:31;;;;;;;11.40;3.42;;;;;;;33.93;29.60;100790.09;5084804;28;20055;-63
2022/07/26 04:45:59;;;;;;;17.65;4.13;;;;;;;33.90;29.38;100796.56;5088698;28;20103;-63
2022/07/26 04:48:26;;;;;;;16.20;3.90;;;;;;;33.80;29.95;100794.66;5077206;28;20410;-64
2022/07/26 04:50:54;;;;;;;13.40;3.50;;;;;;;33.76;29.64;100796.72;5080563;28;20398;-64
2022/07/26 04:53:21;;;;;;;16.70;3.75;;;;;;;33.71;29.43;100797.19;5077727;28;20103;-64
2022/07/26 04:55:48;;;;;;;16.77;3.60;;;;;;;33.63;29.06;100784.41;5073991;28;20398;-63
2022/07/26 04:58:15;;;;;;;20.45;3.60;;;;;;;33.75;29.02;100791.50;5070750;28;20036;-63
2022/07/26 05:00:42;;;;;;;13.32;3.92;;;;;;;33.67;29.07;100784.34;5068164;28;20098;-63
2022/07/26 05:03:09;;;;;;;13.88;3.20;;;;;;;33.57;29.07;100795.31;5071829;28;20129;-63
2022/07/26 05:05:36;;;;;;;8.50;2.80;;;;;;;33.55;29.22;100788.50;5072410;28;20029;-63
2022/07/26 05:08:02;;;;;;;8.50;2.60;;;;;;;33.60;28.89;100797.31;5073512;28;20028;-63
2022/07/26 05:10:35;;;;;;;11.68;2.70;;;;;;;33.58;28.74;100798.97;5074396;28;20506;-64
2022/07/26 05:13:06;;;;;;;11.73;2.42;;;;;;;33.50;28.69;100786.97;5077666;28;20099;-64
2022/07/26 05:15:35;;;;;;;8.88;2.67;;;;;;;33.52;28.98;100789.34;5074457;28;20037;-63
2022/07/26 05:18:08;;;;;;;7.72;2.85;;;;;;;33.47;28.86;100795.47;5074055;28;20063;-63
2022/07/26 05:20:36;;;;;;;10.50;2.85;;;;;;;33.54;28.78;100795.38;5073541;28;20428;-63
2022/07/26 05:23:03;;;;;;;9.55;2.63;;;;;;;33.46;29.05;100793.88;5072433;28;20024;-62
2022/07/26 05:25:30;;;;;;;6.50;2.53;;;;;;;33.28;29.34;100803.28;5072753;28;20043;-62
2022/07/26 05:27:57;;;;;;;13.77;3.17;;;;;;;33.23;29.70;100800.13;5074122;28;20032;-62
2022/07/26 05:30:24;;;;;;;13.82;2.92;;;;;;;33.15;29.99;100799.38;5085061;28;20116;-62
2022/07/26 05:32:52;;;;;;;14.05;3.20;;;;;;;33.23;30.23;100800.94;5074963;28;20035;-62
2022/07/26 05:35:21;;;;;;;9.30;2.88;;;;;;;33.14;30.23;100797.00;5078646;28;20060;-62
2022/07/26 05:37:48;;;;;;;12.98;3.28;;;;;;;33.04;30.56;100791.06;5078400;28;20021;-62
2022/07/26 05:40:15;;;;;;;12.60;2.97;;;;;;;32.99;30.96;100807.59;5076274;28;20506;-62
2022/07/26 05:42:42;;;;;;;15.00;2.90;;;;;;;32.92;31.51;100804.84;5088421;28;20032;-61
2022/07/26 05:45:10;;;;;;;12.75;2.97;;;;;;;32.90;31.83;100807.28;5074530;28;20104;-62
2022/07/26 05:47:36;;;;;;;6.60;3.00;;;;;;;32.91;31.69;100806.06;5073751;28;20054;-62
2022/07/26 05:50:05;;;;;;;11.32;3.40;;;;;;;32.95;31.68;100812.44;5083322;28;20025;-61
2022/07/26 05:52:32;;;;;;;20.55;3.70;;;;;;;32.92;32.26;100802.03;5090045;28;20475;-61
2022/07/26 05:54:58;;;;;;;9.27;3.17;;;;;;;33.00;32.30;100803.56;5082701;28;20056;-63
2022/07/26 05:57:25;;;;;;;12.95;3.33;;;;;;;32.90;32.60;100798.84;5082677;28;20039;-64
2022/07/26 05:59:51;;;;;;;9.25;2.90;;;;;;;32.87;32.46;100794.03;5079369;28;20024;-63
2022/07/26 06:02:18;;;;;;;10.10;2.80;;;;;;;32.72;33.07;100798.94;5076184;28;20024;-64
2022/07/26 06:04:45;;;;;;;16.77;3.30;;;;;;;32.81;33.14;100790.03;5081436;28;20064;-62
2022/07/26 06:07:12;;;;;;;12.60;3.10;;;;;;;32.74;33.52;100794.50;5074580;28;20490;-62
2022/07/26 06:09:40;;;;;;;10.25;3.15;;;;;;;32.73;33.66;100801.34;5078557;28;20043;-62
2022/07/26 06:12:08;;;;;;;9.57;2.95;;;;;;;32.68;33.83;100790.53;5074499;28;20035;-62
2022/07/26 06:14:36;;;;;;;12.40;2.97;;;;;;;32.67;34.12;100794.53;5077284;28;20118;-62
2022/07/26 06:17:05;;;;;;;9.30;3.15;;;;;;;32.62;33.92;100795.00;5071699;28;20048;-63
2022/07/26 06:19:34;;;;;;;13.50;2.90;;;;;;;32.54;34.47;100793.47;5073840;28;20016;-63
2022/07/26 06:22:02;;;;;;;9.68;2.72;;;;;;;32.49;35.28;100805.13;5081792;28;20025;-63
2022/07/26 06:24:31;;;;;;;10.15;3.05;;;;;;;32.55;35.53;100799.88;5084303;28;20394;-64
2022/07/26 06:26:59;;;;;;;7.93;2.60;;;;;;;32.65;35.95;100799.00;5079873;28;20059;-64
2022/07/26 06:29:27;;;;;;;11.65;2.78;;;;;;;32.54;36.38;100792.66;5076173;28;20031;-63
2022/07/26 06:31:55;;;;;;;12.43;2.65;;;;;;;32.45;36.65;100784.66;5073830;28;20036;-64
2022/07/26 06:34:24;;;;;;;10.63;2.80;;;;;;;32.45;37.00;100787.47;5085545;28;20085;-63
2022/07/26 06:36:52;;;;;;;7.25;3.20;;;;;;;32.41;36.79;100797.97;5077792;28;20029;-64
2022/07/26 06:39:19;;;;;;;26.65;3.47;;;;;;;32.32;37.22;100786.38;5077908;28;20021;-64
2022/07/26 06:41:47;;;;;;;7.65;2.42;;;;;;;32.26;37.39;100788.00;5077185;28;20060;-64
2022/07/26 06:44:22;;;;;;;7.38;3.03;;;;;;;32.20;37.69;100789.66;5077031;28;20021;-64
2022/07/26 06:46:50;;;;;;;13.15;3.22;;;;;;;32.24;38.25;100798.84;5073973;28;20032;-64
2022/07/26 06:49:19;;;;;;;9.55;3.25;;;;;;;32.16;37.90;100787.66;5077401;28;20025;-63
2022/07/26 06:51:48;;;;;;;18.50;3.35;;;;;;;32.11;38.37;100787.28;5079694;28;20032;-63
2022/07/26 06:54:15;;;;;;;12.60;3.55;;;;;;;32.14;38.32;100787.28;5080984;28;20031;-63
2022/07/26 06:56:42;;;;;;;12.38;3.42;;;;;;;32.07;39.24;100792.91;5076834;28;20037;-63
2022/07/26 06:59:10;;;;;;;12.15;2.97;;;;;;;32.15;39.01;100793.69;5076668;28;20036;-63
2022/07/26 07:01:39;;;;;;;8.02;2.83;;;;;;;32.07;39.15;100789.31;5071749;28;20532;-63
2022/07/26 07:04:08;;;;;;;11.55;3.28;;;;;;;32.04;39.39;100790.13;5081160;28;20054;-63
2022/07/26 07:06:34;;;;;;;8.77;3.00;;;;;;;31.95;39.21;100795.38;5063055;28;20047;-64
2022/07/26 07:09:01;;;;;;;12.65;3.25;;;;;;;31.86;39.98;100788.22;5077194;28;20098;-63
2022/07/26 07:11:28;;;;;;;14.00;3.17;;;;;;;31.96;39.83;100795.00;5078987;28;20509;-63
2022/07/26 07:13:54;;;;;;;6.32;2.90;;;;;;;31.88;39.82;100789.81;5080233;28;20115;-64
2022/07/26 07:16:21;;;;;;;10.45;3.03;;;;;;;31.80;40.06;100798.28;5077045;28;20024;-64
2022/07/26 07:18:50;;;;;;;14.05;3.20;;;;;;;31.89;40.58;100794.22;5078617;28;20621;-63
2022/07/26 07:21:16;;;;;;;11.30;2.85;;;;;;;31.92;40.40;100791.38;5079253;28;20032;-64
2022/07/26 07:23:43;;;;;;;15.07;3.20;;;;;;;31.79;40.82;100793.88;5077488;28;20025;-63
2022/07/26 07:26:10;;;;;;;14.68;3.20;;;;;;;31.75;40.96;100784.63;5080548;28;20059;-64
2022/07/26 07:28:39;;;;;;;15.02;3.60;;;;;;;31.77;41.48;100789.84;5090346;28;20107;-63
2022/07/26 07:31:06;;;;;;;13.57;3.05;;;;;;;31.64;41.23;100797.13;5081297;28;20383;-63
2022/07/26 07:33:33;;;;;;;10.48;2.92;;;;;;;31.61;41.17;100789.50;5087123;28;20028;-63
2022/07/26 07:35:59;;;;;;;11.25;2.83;;;;;;;31.53;41.14;100783.88;5084731;28;20061;-63
2022/07/26 07:38:26;;;;;;;9.23;2.60;;;;;;;31.63;42.06;100792.72;5085987;28;20031;-63
2022/07/26 07:40:52;;;;;;;10.02;3.00;;;;;;;31.54;42.18;100798.75;5104572;28;20058;-62
2022/07/26 07:43:19;;;;;;;13.57;3.28;;;;;;;31.47;42.63;100805.19;5098300;28;20024;-62
2022/07/26 07:45:46;;;;;;;9.18;3.00;;;;;;;31.39;42.83;100797.97;5081052;28;20028;-62
2022/07/26 07:48:12;;;;;;;7.15;2.88;;;;;;;31.36;42.79;100793.16;5090036;28;20486;-62
2022/07/26 07:50:39;;;;;;;8.93;2.85;;;;;;;31.26;43.36;100799.63;5076883;28;20024;-62
2022/07/26 07:53:06;;;;;;;10.50;3.15;;;;;;;31.39;43.38;100799.97;5086997;28;20532;-63
2022/07/26 07:55:33;;;;;;;10.07;2.80;;;;;;;31.30;42.55;100794.81;5082211;28;20058;-63
2022/07/26 07:58:00;;;;;;;15.10;2.85;;;;;;;31.31;43.11;100801.22;5088053;28;20027;-62
2022/07/26 08:00:26;;;;;;;14.13;3.17;;;;;;;31.16;43.41;100791.97;5077098;28;20067;-62
2022/07/26 08:02:54;;;;;;;13.07;2.92;;;;;;;31.12;43.88;100794.81;5088507;28;20070;-62
2022/07/26 08:05:21;;;;;;;10.38;3.05;;;;;;;31.15;43.35;100794.00;5082429;28;20402;-62
2022/07/26 08:07:47;;;;;;;10.30;2.70;;;;;;;31.12;44.18;100788.38;5080352;28;20052;-62
2022/07/26 08:10:15;;;;;;;11.35;3.00;;;;;;;31.02;44.46;100792.00;5089936;28;20032;-62
2022/07/26 08:12:43;;;;;;;8.63;2.83;;;;;;;30.99;45.27;100799.22;5060255;28;20051;-62
2022/07/26 08:15:10;;;;;;;12.77;3.13;;;;;;;30.94;45.41;100788.41;5085796;28;20028;-61
2022/07/26 08:17:36;;;;;;;9.55;2.90;;;;;;;30.96;44.66;100798.03;5084138;28;20024;-63
2022/07/26 08:20:04;;;;;;;11.55;3.13;;;;;;;30.95;44.53;100784.41;5077228;28;20074;-63
2022/07/26 08:22:30;;;;;;;7.90;3.00;;;;;;;31.00;43.93;100800.03;5089683;28;20478;-61
2022/07/26 08:24:58;;;;;;;10.63;3.08;;;;;;;30.85;46.23;100797.22;5078981;28;20144;-61
2022/07/26 08:27:24;;;;;;;10.05;3.30;;;;;;;30.73;46.99;100794.03;5084395;28;20368;-61
2022/07/26 08:29:51;;;;;;;11.77;3.67;;;;;;;30.70;47.34;100792.81;5079595;28;20121;-60
2022/07/26 08:32:18;;;;;;;25.17;4.80;;;;;;;30.58;48.20;100777.16;5089509;28;20374;-61
2022/07/26 08:34:45;;;;;;;7.95;3.47;;;;;;;30.62;48.61;100794.00;5076910;28;20055;-61
2022/07/26 08:37:11;;;;;;;15.02;4.50;;;;;;;30.47;49.39;100775.53;5085148;28;20031;-61
2022/07/26 08:39:38;;;;;;;11.02;4.20;;;;;;;30.55;49.60;100797.59;5084398;28;20475;-61
2022/07/26 08:42:13;;;;;;;14.38;3.88;;;;;;;30.48;50.78;100797.56;5077733;28;20033;-61
2022/07/26 08:44:42;;;;;;;8.63;4.20;;;;;;;30.46;50.04;100794.38;5089424;28;20417;-62
2022/07/26 08:47:11;;;;;;;10.00;3.70;;;;;;;30.40;51.02;100793.16;5080249;28;20036;-63
2022/07/26 08:49:38;;;;;;;16.10;4.55;;;;;;;30.31;53.35;100796.34;5081067;28;20050;-63
2022/07/26 08:52:05;;;;;;;17.65;4.80;;;;;;;30.33;53.81;100790.34;5087971;28;20543;-63
2022/07/26 08:54:32;;;;;;;14.77;4.30;;;;;;;30.20;54.82;100789.94;5076124;28;20028;-63
2022/07/26 08:56:59;;;;;;;27.70;4.70;;;;;;;30.26;55.33;100802.34;5084958;28;20039;-62
2022/07/26 08:59:26;;;;;;;11.95;4.50;;;;;;;30.24;56.22;100796.34;5082766;28;20823;-62
2022/07/26 09:02:13;;;;;;;18.77;4.43;;;;;;;30.25;56.23;100803.56;5086052;28;20033;-63
2022/07/26 09:04:45;;;;;;;18.48;4.72;;;;;;;30.22;56.86;100809.16;5076045;28;20035;-63
2022/07/26 09:07:17;;;;;;;10.07;3.90;;;;;;;30.19;56.02;100805.16;5084415;28;20040;-63
2022/07/26 09:10:14;;;;;;;12.93;4.20;;;;;;;30.25;57.21;100802.75;5084573;28;20067;-63
2022/07/26 09:12:42;;;;;;;14.25;4.10;;;;;;;30.24;57.06;100793.53;5058926;28;20409;-63
2022/07/26 09:15:21;;;;;;;12.70;3.95;;;;;;;30.22;57.69;100803.53;5085274;28;20031;-61
2022/07/26 09:17:50;;;;;;;13.98;4.80;;;;;;;30.16;58.18;100800.31;5085012;28;20055;-62
2022/07/26 09:20:23;;;;;;;12.05;3.90;;;;;;;30.20;57.81;100795.53;5075679;28;20486;-62
2022/07/26 09:23:01;;;;;;;11.60;4.10;;;;;;;30.22;57.83;100798.75;5088352;28;20127;-63
2022/07/26 09:25:40;;;;;;;13.35;3.83;;;;;;;30.13;58.16;100811.50;5083768;28;20035;-60
2022/07/26 09:28:25;;;;;;;8.25;3.67;;;;;;;30.11;57.36;100797.91;5090879;28;20051;-64
2022/07/26 09:30:54;;;;;;;9.48;4.05;;;;;;;30.07;57.83;100802.69;5065531;28;20032;-63
2022/07/26 09:33:20;;;;;;;12.00;3.90;;;;;;;30.06;58.43;100798.28;5087551;28;20020;-63
2022/07/26 09:36:13;;;;;;;10.02;4.15;;;;;;;30.10;58.12;100807.50;5088832;28;20100;-63
2022/07/26 09:38:46;;;;;;;11.15;3.70;;;;;;;30.06;59.61;100806.69;5077095;28;20066;-63
2022/07/26 09:41:28;;;;;;;12.98;4.00;;;;;;;29.95;59.61;100808.63;5088324;28;20036;-63
2022/07/26 09:44:01;;;;;;;14.20;4.38;;;;;;;29.91;60.18;100810.63;5090217;28;20056;-63
2022/07/26 09:46:29;;;;;;;13.23;4.32;;;;;;;29.85;60.21;100812.19;5079636;28;20538;-63
2022/07/26 09:48:59;;;;;;;15.07;4.10;;;;;;;29.85;60.10;100817.81;5090595;28;20071;-63
2022/07/26 09:51:40;;;;;;;14.80;4.15;;;;;;;29.81;60.55;100822.59;5085822;28;20032;-63
2022/07/26 09:54:09;;;;;;;11.30;3.80;;;;;;;29.82;60.34;100819.41;5080749;28;20045;-63
2022/07/26 09:56:49;;;;;;;16.00;4.15;;;;;;;29.75;60.18;100828.56;5087351;28;20024;-63
2022/07/26 09:59:20;;;;;;;10.77;3.60;;;;;;;29.70;59.11;100820.53;5087759;28;20052;-64
2022/07/26 10:01:47;;;;;;;14.43;3.95;;;;;;;29.82;61.30;100813.00;5088393;28;20410;-62
2022/07/26 10:04:15;;;;;;;9.48;3.97;;;;;;;29.84;61.60;100817.00;5079336;28;20067;-62
2022/07/26 10:06:43;;;;;;;15.90;4.32;;;;;;;29.76;61.54;100821.75;5062857;28;20488;-62
2022/07/26 10:09:11;;;;;;;12.00;4.03;;;;;;;29.74;61.83;100823.34;5087173;28;20032;-64
2022/07/26 10:12:03;;;;;;;9.05;3.63;;;;;;;29.73;61.29;100816.94;5086866;28;20097;-62
2022/07/26 10:14:33;;;;;;;9.73;3.88;;;;;;;29.75;61.92;100833.34;5078875;28;20475;-63
2022/07/26 10:17:20;;;;;;;11.30;3.10;;;;;;;29.72;61.16;100832.16;5089545;28;20068;-63
2022/07/26 10:19:47;;;;;;;10.25;3.47;;;;;;;29.76;61.98;100837.75;5088041;28;20032;-63
2022/07/26 10:22:29;;;;;;;10.05;3.85;;;;;;;29.75;62.49;100831.34;5079233;28;20115;-62
2022/07/26 10:25:16;;;;;;;16.00;4.20;;;;;;;29.72;63.07;100837.75;5066509;28;20488;-62
2022/07/26 10:27:47;;;;;;;12.20;3.63;;;;;;;29.66;63.54;100838.53;5087099;28;20036;-62
2022/07/26 10:30:17;;;;;;;14.27;4.10;;;;;;;29.60;63.37;100826.88;5079006;28;20486;-62
2022/07/26 10:32:56;;;;;;;16.63;3.90;;;;;;;29.57;64.18;100829.66;5067984;28;20107;-63
2022/07/26 10:35:30;;;;;;;9.60;3.58;;;;;;;29.51;63.35;100836.84;5082464;28;20039;-63
2022/07/26 10:37:59;;;;;;;11.90;4.07;;;;;;;29.52;63.50;100838.44;5079861;28;20041;-62
2022/07/26 10:40:29;;;;;;;13.55;3.90;;;;;;;29.52;63.20;100832.84;5091774;28;20048;-62
2022/07/26 10:43:09;;;;;;;16.15;3.85;;;;;;;29.46;62.29;100838.81;5080734;28;20489;-63
2022/07/26 10:45:36;;;;;;;13.30;4.60;;;;;;;29.58;62.14;100840.47;5083613;28;20564;-63
2022/07/26 10:48:21;;;;;;;11.27;4.32;;;;;;;29.61;62.40;100842.47;5088772;28;20062;-63
2022/07/26 10:50:50;;;;;;;11.68;4.15;;;;;;;29.53;62.11;100837.25;5064342;28;20503;-62
2022/07/26 10:53:23;;;;;;;12.52;4.05;;;;;;;29.47;62.12;100842.44;5085344;28;20029;-62
2022/07/26 10:55:56;;;;;;;20.10;4.57;;;;;;;29.44;62.61;100843.97;5082576;28;20494;-62
2022/07/26 10:58:25;;;;;;;13.45;3.92;;;;;;;29.43;62.65;100835.94;5091362;28;20040;-62
2022/07/26 11:00:59;;;;;;;14.27;3.78;;;;;;;29.36;62.93;100847.91;5079779;28;20406;-63
2022/07/26 11:03:40;;;;;;;9.07;3.67;;;;;;;29.35;62.88;100851.09;5085079;28;20086;-63
2022/07/26 11:06:17;;;;;;;12.43;3.63;;;;;;;29.36;62.75;100842.31;5074284;28;20052;-63
2022/07/26 11:08:46;;;;;;;12.43;3.40;;;;;;;29.33;62.30;100854.28;5062691;28;20085;-63
2022/07/26 11:11:26;;;;;;;10.75;3.85;;;;;;;29.19;60.72;100831.78;5086399;28;20029;-63
2022/07/26 11:14:03;;;;;;;12.50;4.10;;;;;;;29.26;61.79;100850.63;5074429;28;20097;-62
2022/07/26 11:16:36;;;;;;;11.63;3.97;;;;;;;29.23;62.64;100848.59;5091000;28;20024;-62
2022/07/26 11:19:37;;;;;;;11.25;4.30;;;;;;;29.16;62.48;100849.38;5081155;28;20046;-62
2022/07/26 11:22:04;;;;;;;11.63;4.25;;;;;;;29.16;62.67;100861.38;5068747;28;20040;-63
2022/07/26 11:24:31;;;;;;;16.35;4.78;;;;;;;29.15;62.57;100850.56;5090981;28;20489;-63
2022/07/26 11:27:03;;;;;;;13.82;4.32;;;;;;;29.12;62.85;100857.75;5080015;28;20436;-63
2022/07/26 11:29:33;;;;;;;12.05;4.22;;;;;;;29.13;62.57;100858.53;5083823;28;20108;-63